sensor_id;sensor_type;location;lat;lon;timestamp;pressure;altitude;pressure_sealevel;temperature;humidity
55990;BME280;41875;55.806;38.082;2023-07-24T00:01:20;98687.53;;;17.86;65.64
55990;BME280;41875;55.806;38.082;2023-07-24T00:03:49;98687.22;;;18.24;64.13
55990;BME280;41875;55.806;38.082;2023-07-24T00:06:18;98687.56;;;18.16;63.84
55990;BME280;41875;55.806;38.082;2023-07-24T00:08:50;98682.97;;;18.05;64.28
55990;BME280;41875;55.806;38.082;2023-07-24T00:11:22;98695.00;;;17.95;64.79
55990;BME280;41875;55.806;38.082;2023-07-24T00:13:50;98682.34;;;18.33;63.52
55990;BME280;41875;55.806;38.082;2023-07-24T00:16:19;98690.28;;;18.28;63.59
55990;BME280;41875;55.806;38.082;2023-07-24T00:18:50;98690.88;;;18.00;63.89
55990;BME280;41875;55.806;38.082;2023-07-24T00:21:19;98690.28;;;17.79;64.60
55990;BME280;41875;55.806;38.082;2023-07-24T00:23:47;98686.91;;;17.72;65.50
55990;BME280;41875;55.806;38.082;2023-07-24T00:26:22;98684.38;;;17.58;65.39
55990;BME280;41875;55.806;38.082;2023-07-24T00:28:50;98695.88;;;17.77;65.59
55990;BME280;41875;55.806;38.082;2023-07-24T00:31:23;98688.66;;;17.78;65.06
55990;BME280;41875;55.806;38.082;2023-07-24T00:33:51;98687.06;;;17.89;64.44
55990;BME280;41875;55.806;38.082;2023-07-24T00:36:20;98685.00;;;18.21;63.52
55990;BME280;41875;55.806;38.082;2023-07-24T00:38:48;98684.09;;;18.39;62.96
55990;BME280;41875;55.806;38.082;2023-07-24T00:41:22;98685.13;;;17.96;64.01
55990;BME280;41875;55.806;38.082;2023-07-24T00:43:53;98682.06;;;18.11;63.29
55990;BME280;41875;55.806;38.082;2023-07-24T00:46:28;98680.34;;;17.67;64.43
55990;BME280;41875;55.806;38.082;2023-07-24T00:49:04;98683.22;;;17.85;63.92
55990;BME280;41875;55.806;38.082;2023-07-24T00:51:33;98683.13;;;17.91;63.96
55990;BME280;41875;55.806;38.082;2023-07-24T00:54:06;98685.16;;;17.77;63.83
55990;BME280;41875;55.806;38.082;2023-07-24T00:56:37;98686.44;;;17.75;64.33
55990;BME280;41875;55.806;38.082;2023-07-24T00:59:06;98690.88;;;17.32;65.15
55990;BME280;41875;55.806;38.082;2023-07-24T01:01:39;98691.31;;;17.47;65.15
55990;BME280;41875;55.806;38.082;2023-07-24T01:04:10;98678.53;;;17.31;65.12
55990;BME280;41875;55.806;38.082;2023-07-24T01:06:38;98684.56;;;17.26;65.43
55990;BME280;41875;55.806;38.082;2023-07-24T01:09:07;98679.28;;;17.19;65.51
55990;BME280;41875;55.806;38.082;2023-07-24T01:11:42;98679.56;;;17.30;65.83
55990;BME280;41875;55.806;38.082;2023-07-24T01:14:15;98671.69;;;17.35;65.18
55990;BME280;41875;55.806;38.082;2023-07-24T01:16:47;98682.50;;;17.59;65.34
55990;BME280;41875;55.806;38.082;2023-07-24T01:19:34;98676.88;;;17.48;64.91
55990;BME280;41875;55.806;38.082;2023-07-24T01:22:12;98670.19;;;17.88;64.43
55990;BME280;41875;55.806;38.082;2023-07-24T01:25:01;98663.09;;;18.24;62.01
55990;BME280;41875;55.806;38.082;2023-07-24T01:27:33;98665.19;;;18.22;61.87
55990;BME280;41875;55.806;38.082;2023-07-24T01:30:03;98667.66;;;18.36;62.08
55990;BME280;41875;55.806;38.082;2023-07-24T01:32:33;98667.91;;;18.70;60.32
55990;BME280;41875;55.806;38.082;2023-07-24T01:35:05;98672.00;;;19.20;59.06
55990;BME280;41875;55.806;38.082;2023-07-24T01:37:36;98673.19;;;19.53;57.76
55990;BME280;41875;55.806;38.082;2023-07-24T01:40:08;98673.09;;;19.48;57.06
55990;BME280;41875;55.806;38.082;2023-07-24T01:42:38;98672.38;;;19.53;56.86
55990;BME280;41875;55.806;38.082;2023-07-24T01:45:08;98682.75;;;19.61;56.53
55990;BME280;41875;55.806;38.082;2023-07-24T01:47:38;98678.69;;;20.16;54.78
55990;BME280;41875;55.806;38.082;2023-07-24T01:50:08;98676.81;;;20.34;54.63
55990;BME280;41875;55.806;38.082;2023-07-24T01:52:39;98676.91;;;20.56;53.62
55990;BME280;41875;55.806;38.082;2023-07-24T01:55:11;98672.84;;;20.53;52.90
55990;BME280;41875;55.806;38.082;2023-07-24T01:57:44;98676.56;;;21.04;52.28
55990;BME280;41875;55.806;38.082;2023-07-24T02:00:12;98658.47;;;21.43;51.24
55990;BME280;41875;55.806;38.082;2023-07-24T02:02:41;98671.28;;;21.81;49.94
55990;BME280;41875;55.806;38.082;2023-07-24T02:05:10;98662.91;;;21.77;49.63
55990;BME280;41875;55.806;38.082;2023-07-24T02:07:38;98660.47;;;21.75;49.54
55990;BME280;41875;55.806;38.082;2023-07-24T02:10:08;98662.84;;;21.72;49.57
55990;BME280;41875;55.806;38.082;2023-07-24T02:12:41;98667.88;;;22.18;48.61
55990;BME280;41875;55.806;38.082;2023-07-24T02:15:10;98667.50;;;22.36;47.62
55990;BME280;41875;55.806;38.082;2023-07-24T02:17:42;98669.53;;;22.51;47.32
55990;BME280;41875;55.806;38.082;2023-07-24T02:20:11;98668.09;;;22.81;47.14
55990;BME280;41875;55.806;38.082;2023-07-24T02:22:43;98668.56;;;23.16;45.69
55990;BME280;41875;55.806;38.082;2023-07-24T02:25:15;98668.88;;;23.20;45.97
55990;BME280;41875;55.806;38.082;2023-07-24T02:27:45;98668.88;;;23.20;45.91
55990;BME280;41875;55.806;38.082;2023-07-24T02:30:13;98681.09;;;23.27;45.46
55990;BME280;41875;55.806;38.082;2023-07-24T02:32:41;98681.63;;;23.24;45.62
55990;BME280;41875;55.806;38.082;2023-07-24T02:35:10;98682.47;;;23.35;45.62
55990;BME280;41875;55.806;38.082;2023-07-24T02:37:39;98673.69;;;23.12;45.95
55990;BME280;41875;55.806;38.082;2023-07-24T02:40:11;98678.44;;;22.95;46.50
55990;BME280;41875;55.806;38.082;2023-07-24T02:42:40;98674.50;;;23.13;46.17
55990;BME280;41875;55.806;38.082;2023-07-24T02:45:13;98675.94;;;24.20;44.29
55990;BME280;41875;55.806;38.082;2023-07-24T02:47:41;98675.94;;;24.36;44.03
55990;BME280;41875;55.806;38.082;2023-07-24T02:50:10;98672.94;;;24.69;43.08
55990;BME280;41875;55.806;38.082;2023-07-24T02:52:42;98677.28;;;24.85;43.16
55990;BME280;41875;55.806;38.082;2023-07-24T02:55:13;98682.72;;;24.85;42.69
55990;BME280;41875;55.806;38.082;2023-07-24T02:57:41;98683.34;;;25.42;42.39
55990;BME280;41875;55.806;38.082;2023-07-24T03:00:11;98684.59;;;24.85;43.13
55990;BME280;41875;55.806;38.082;2023-07-24T03:02:41;98689.31;;;25.50;42.35
55990;BME280;41875;55.806;38.082;2023-07-24T03:05:12;98676.44;;;25.00;43.53
55990;BME280;41875;55.806;38.082;2023-07-24T03:07:41;98690.00;;;24.95;43.59
55990;BME280;41875;55.806;38.082;2023-07-24T03:10:10;98684.66;;;26.11;41.15
55990;BME280;41875;55.806;38.082;2023-07-24T03:12:38;98686.09;;;25.27;42.26
55990;BME280;41875;55.806;38.082;2023-07-24T03:15:07;98692.03;;;25.95;41.27
55990;BME280;41875;55.806;38.082;2023-07-24T03:17:36;98698.31;;;25.19;41.90
55990;BME280;41875;55.806;38.082;2023-07-24T03:20:14;98691.63;;;24.86;42.64
55990;BME280;41875;55.806;38.082;2023-07-24T03:22:44;98698.19;;;22.58;48.83
55990;BME280;41875;55.806;38.082;2023-07-24T03:25:14;98694.28;;;23.87;45.82
55990;BME280;41875;55.806;38.082;2023-07-24T03:27:44;98694.34;;;24.65;44.04
55990;BME280;41875;55.806;38.082;2023-07-24T03:30:13;98701.25;;;23.78;45.72
55990;BME280;41875;55.806;38.082;2023-07-24T03:32:42;98700.88;;;22.58;48.78
55990;BME280;41875;55.806;38.082;2023-07-24T03:35:11;98695.50;;;22.03;50.49
55990;BME280;41875;55.806;38.082;2023-07-24T03:37:40;98693.84;;;20.91;53.81
55990;BME280;41875;55.806;38.082;2023-07-24T03:40:09;98688.09;;;20.48;55.86
55990;BME280;41875;55.806;38.082;2023-07-24T03:42:38;98691.31;;;20.33;56.34
55990;BME280;41875;55.806;38.082;2023-07-24T03:45:07;98691.22;;;20.28;56.51
55990;BME280;41875;55.806;38.082;2023-07-24T03:47:36;98693.28;;;20.71;55.50
55990;BME280;41875;55.806;38.082;2023-07-24T03:50:12;98700.97;;;20.97;55.25
55990;BME280;41875;55.806;38.082;2023-07-24T03:52:41;98702.16;;;21.45;53.71
55990;BME280;41875;55.806;38.082;2023-07-24T03:55:09;98698.69;;;21.50;54.03
55990;BME280;41875;55.806;38.082;2023-07-24T03:57:38;98700.06;;;21.30;54.22
55990;BME280;41875;55.806;38.082;2023-07-24T04:00:06;98703.59;;;21.14;54.33
55990;BME280;41875;55.806;38.082;2023-07-24T04:02:38;98700.16;;;20.79;55.37
55990;BME280;41875;55.806;38.082;2023-07-24T04:05:11;98711.41;;;20.59;56.83
55990;BME280;41875;55.806;38.082;2023-07-24T04:07:49;98710.34;;;20.94;54.88
55990;BME280;41875;55.806;38.082;2023-07-24T04:10:17;98712.53;;;20.97;55.52
55990;BME280;41875;55.806;38.082;2023-07-24T04:12:46;98706.78;;;21.11;54.90
55990;BME280;41875;55.806;38.082;2023-07-24T04:15:15;98705.38;;;20.69;56.40
55990;BME280;41875;55.806;38.082;2023-07-24T04:17:48;98697.94;;;20.76;55.29
55990;BME280;41875;55.806;38.082;2023-07-24T04:20:18;98699.91;;;20.81;56.17
55990;BME280;41875;55.806;38.082;2023-07-24T04:22:49;98696.91;;;20.94;54.78
55990;BME280;41875;55.806;38.082;2023-07-24T04:25:17;98694.66;;;21.30;54.62
55990;BME280;41875;55.806;38.082;2023-07-24T04:27:46;98694.66;;;21.53;53.80
55990;BME280;41875;55.806;38.082;2023-07-24T04:30:16;98696.50;;;21.47;53.95
55990;BME280;41875;55.806;38.082;2023-07-24T04:32:45;98689.81;;;21.99;52.76
55990;BME280;41875;55.806;38.082;2023-07-24T04:35:14;98700.44;;;21.84;53.84
55990;BME280;41875;55.806;38.082;2023-07-24T04:37:46;98693.00;;;21.96;51.80
55990;BME280;41875;55.806;38.082;2023-07-24T04:40:15;98699.56;;;21.78;51.42
55990;BME280;41875;55.806;38.082;2023-07-24T04:42:46;98697.50;;;21.85;52.83
55990;BME280;41875;55.806;38.082;2023-07-24T04:45:17;98697.91;;;22.27;50.83
55990;BME280;41875;55.806;38.082;2023-07-24T04:47:49;98695.91;;;21.89;51.97
55990;BME280;41875;55.806;38.082;2023-07-24T04:50:18;98693.78;;;22.19;51.09
55990;BME280;41875;55.806;38.082;2023-07-24T04:52:48;98687.38;;;21.98;52.03
55990;BME280;41875;55.806;38.082;2023-07-24T04:55:16;98689.72;;;21.89;52.08
55990;BME280;41875;55.806;38.082;2023-07-24T04:57:45;98686.56;;;21.70;52.39
55990;BME280;41875;55.806;38.082;2023-07-24T05:00:14;98684.59;;;21.65;52.58
55990;BME280;41875;55.806;38.082;2023-07-24T05:02:43;98687.34;;;22.25;50.59
55990;BME280;41875;55.806;38.082;2023-07-24T05:05:11;98687.34;;;22.25;50.21
55990;BME280;41875;55.806;38.082;2023-07-24T05:07:40;98692.59;;;22.37;50.16
55990;BME280;41875;55.806;38.082;2023-07-24T05:10:10;98690.72;;;23.13;48.47
55990;BME280;41875;55.806;38.082;2023-07-24T05:12:41;98691.47;;;23.08;47.69
55990;BME280;41875;55.806;38.082;2023-07-24T05:15:10;98693.41;;;22.70;48.41
55990;BME280;41875;55.806;38.082;2023-07-24T05:17:38;98689.38;;;22.73;48.15
55990;BME280;41875;55.806;38.082;2023-07-24T05:20:08;98682.63;;;22.70;48.19
55990;BME280;41875;55.806;38.082;2023-07-24T05:22:37;98685.03;;;22.72;47.14
55990;BME280;41875;55.806;38.082;2023-07-24T05:25:06;98684.75;;;22.35;49.08
55990;BME280;41875;55.806;38.082;2023-07-24T05:27:39;98688.00;;;22.70;48.72
55990;BME280;41875;55.806;38.082;2023-07-24T05:30:13;98681.22;;;22.62;48.65
55990;BME280;41875;55.806;38.082;2023-07-24T05:32:42;98679.34;;;23.11;47.23
55990;BME280;41875;55.806;38.082;2023-07-24T05:35:11;98673.03;;;23.38;46.80
55990;BME280;41875;55.806;38.082;2023-07-24T05:37:39;98683.03;;;23.42;46.21
55990;BME280;41875;55.806;38.082;2023-07-24T05:40:08;98688.75;;;23.51;45.93
55990;BME280;41875;55.806;38.082;2023-07-24T05:42:38;98679.78;;;23.40;45.32
55990;BME280;41875;55.806;38.082;2023-07-24T05:45:10;98681.16;;;23.43;44.95
55990;BME280;41875;55.806;38.082;2023-07-24T05:47:38;98680.75;;;23.93;44.78
55990;BME280;41875;55.806;38.082;2023-07-24T05:50:08;98673.78;;;24.28;43.61
55990;BME280;41875;55.806;38.082;2023-07-24T05:52:40;98675.63;;;24.89;42.31
55990;BME280;41875;55.806;38.082;2023-07-24T05:55:09;98671.34;;;24.31;42.16
55990;BME280;41875;55.806;38.082;2023-07-24T05:57:39;98677.03;;;23.30;45.00
55990;BME280;41875;55.806;38.082;2023-07-24T06:00:08;98684.78;;;23.85;44.88
55990;BME280;41875;55.806;38.082;2023-07-24T06:02:42;98686.16;;;23.87;43.89
55990;BME280;41875;55.806;38.082;2023-07-24T06:05:12;98682.44;;;24.25;42.71
55990;BME280;41875;55.806;38.082;2023-07-24T06:07:40;98677.56;;;24.27;42.66
55990;BME280;41875;55.806;38.082;2023-07-24T06:10:09;98684.00;;;23.89;43.62
55990;BME280;41875;55.806;38.082;2023-07-24T06:12:40;98682.13;;;23.95;43.27
55990;BME280;41875;55.806;38.082;2023-07-24T06:15:11;98680.81;;;24.18;42.71
55990;BME280;41875;55.806;38.082;2023-07-24T06:17:39;98679.03;;;23.60;43.84
55990;BME280;41875;55.806;38.082;2023-07-24T06:20:11;98685.06;;;23.20;43.81
55990;BME280;41875;55.806;38.082;2023-07-24T06:22:40;98686.75;;;22.83;45.71
55990;BME280;41875;55.806;38.082;2023-07-24T06:25:09;98683.84;;;22.90;44.85
55990;BME280;41875;55.806;38.082;2023-07-24T06:27:39;98687.28;;;22.47;45.40
55990;BME280;41875;55.806;38.082;2023-07-24T06:30:08;98691.25;;;23.10;44.13
55990;BME280;41875;55.806;38.082;2023-07-24T06:32:42;98692.72;;;23.33;42.93
55990;BME280;41875;55.806;38.082;2023-07-24T06:35:11;98689.00;;;23.02;43.03
55990;BME280;41875;55.806;38.082;2023-07-24T06:37:42;98687.47;;;22.68;44.07
55990;BME280;41875;55.806;38.082;2023-07-24T06:40:11;98689.53;;;22.93;44.27
55990;BME280;41875;55.806;38.082;2023-07-24T06:42:41;98688.34;;;22.79;43.70
55990;BME280;41875;55.806;38.082;2023-07-24T06:45:14;98685.97;;;22.50;45.45
55990;BME280;41875;55.806;38.082;2023-07-24T06:47:42;98691.94;;;22.52;45.18
55990;BME280;41875;55.806;38.082;2023-07-24T06:50:12;98703.38;;;22.10;46.27
55990;BME280;41875;55.806;38.082;2023-07-24T06:52:40;98697.03;;;21.93;47.06
55990;BME280;41875;55.806;38.082;2023-07-24T06:55:10;98697.03;;;22.48;45.76
55990;BME280;41875;55.806;38.082;2023-07-24T06:57:39;98697.28;;;22.84;44.64
55990;BME280;41875;55.806;38.082;2023-07-24T07:00:11;98701.25;;;23.14;44.18
55990;BME280;41875;55.806;38.082;2023-07-24T07:02:43;98692.53;;;23.02;45.91
55990;BME280;41875;55.806;38.082;2023-07-24T07:05:11;98703.44;;;23.18;45.11
55990;BME280;41875;55.806;38.082;2023-07-24T07:07:40;98698.56;;;23.14;46.19
55990;BME280;41875;55.806;38.082;2023-07-24T07:10:08;98698.97;;;23.39;44.94
55990;BME280;41875;55.806;38.082;2023-07-24T07:12:37;98701.22;;;23.57;43.73
55990;BME280;41875;55.806;38.082;2023-07-24T07:15:06;98698.41;;;24.31;42.62
55990;BME280;41875;55.806;38.082;2023-07-24T07:17:37;98700.88;;;24.74;42.02
55990;BME280;41875;55.806;38.082;2023-07-24T07:20:07;98691.91;;;24.38;42.85
55990;BME280;41875;55.806;38.082;2023-07-24T07:22:35;98695.84;;;23.68;43.76
55990;BME280;41875;55.806;38.082;2023-07-24T07:25:04;98691.31;;;23.99;42.96
55990;BME280;41875;55.806;38.082;2023-07-24T07:27:33;98693.50;;;24.13;42.41
55990;BME280;41875;55.806;38.082;2023-07-24T07:30:02;98691.91;;;24.79;39.91
55990;BME280;41875;55.806;38.082;2023-07-24T07:32:33;98699.47;;;24.30;40.13
55990;BME280;41875;55.806;38.082;2023-07-24T07:35:07;98697.38;;;23.43;41.80
55990;BME280;41875;55.806;38.082;2023-07-24T07:37:36;98687.13;;;23.60;41.75
55990;BME280;41875;55.806;38.082;2023-07-24T07:40:06;98690.16;;;23.16;43.35
55990;BME280;41875;55.806;38.082;2023-07-24T07:42:35;98692.84;;;23.69;42.41
55990;BME280;41875;55.806;38.082;2023-07-24T07:45:07;98697.47;;;23.79;42.71
55990;BME280;41875;55.806;38.082;2023-07-24T07:47:35;98691.19;;;23.58;42.28
55990;BME280;41875;55.806;38.082;2023-07-24T07:50:04;98690.41;;;23.68;42.94
55990;BME280;41875;55.806;38.082;2023-07-24T07:52:35;98699.63;;;23.72;42.87
55990;BME280;41875;55.806;38.082;2023-07-24T07:55:05;98696.63;;;23.68;43.14
55990;BME280;41875;55.806;38.082;2023-07-24T07:57:34;98702.75;;;24.27;41.60
55990;BME280;41875;55.806;38.082;2023-07-24T08:00:05;98702.63;;;23.86;42.67
55990;BME280;41875;55.806;38.082;2023-07-24T08:02:34;98698.38;;;24.00;42.59
55990;BME280;41875;55.806;38.082;2023-07-24T08:05:07;98700.81;;;24.02;42.85
55990;BME280;41875;55.806;38.082;2023-07-24T08:07:47;98700.94;;;23.59;43.16
55990;BME280;41875;55.806;38.082;2023-07-24T08:10:18;98707.94;;;23.55;43.72
55990;BME280;41875;55.806;38.082;2023-07-24T08:12:47;98706.66;;;23.14;45.24
55990;BME280;41875;55.806;38.082;2023-07-24T08:15:16;98694.78;;;23.16;45.10
55990;BME280;41875;55.806;38.082;2023-07-24T08:17:44;98703.25;;;22.87;46.38
55990;BME280;41875;55.806;38.082;2023-07-24T08:20:13;98702.16;;;23.31;45.51
55990;BME280;41875;55.806;38.082;2023-07-24T08:22:44;98704.22;;;23.13;46.30
55990;BME280;41875;55.806;38.082;2023-07-24T08:25:18;98702.66;;;22.14;48.27
55990;BME280;41875;55.806;38.082;2023-07-24T08:27:46;98697.03;;;21.93;49.38
55990;BME280;41875;55.806;38.082;2023-07-24T08:30:31;98696.19;;;22.15;49.11
55990;BME280;41875;55.806;38.082;2023-07-24T08:32:59;98700.47;;;21.61;50.39
55990;BME280;41875;55.806;38.082;2023-07-24T08:35:31;98693.25;;;21.67;50.22
55990;BME280;41875;55.806;38.082;2023-07-24T08:37:59;98688.59;;;21.85;51.00
55990;BME280;41875;55.806;38.082;2023-07-24T08:40:31;98694.56;;;21.42;52.97
55990;BME280;41875;55.806;38.082;2023-07-24T08:43:02;98691.78;;;21.37;53.56
55990;BME280;41875;55.806;38.082;2023-07-24T08:45:30;98697.38;;;21.30;54.13
55990;BME280;41875;55.806;38.082;2023-07-24T08:48:00;98690.47;;;21.17;53.60
55990;BME280;41875;55.806;38.082;2023-07-24T08:50:29;98692.09;;;21.19;54.79
55990;BME280;41875;55.806;38.082;2023-07-24T08:52:59;98681.84;;;21.15;54.68
55990;BME280;41875;55.806;38.082;2023-07-24T08:55:31;98692.84;;;21.36;54.50
55990;BME280;41875;55.806;38.082;2023-07-24T08:58:02;98689.69;;;21.61;53.80
55990;BME280;41875;55.806;38.082;2023-07-24T09:00:33;98688.50;;;21.74;54.46
55990;BME280;41875;55.806;38.082;2023-07-24T09:03:04;98689.16;;;21.87;53.48
55990;BME280;41875;55.806;38.082;2023-07-24T09:05:32;98690.34;;;21.74;54.25
55990;BME280;41875;55.806;38.082;2023-07-24T09:08:04;98695.63;;;21.41;55.38
55990;BME280;41875;55.806;38.082;2023-07-24T09:10:36;98695.50;;;21.31;56.11
55990;BME280;41875;55.806;38.082;2023-07-24T09:13:06;98680.63;;;21.28;56.01
55990;BME280;41875;55.806;38.082;2023-07-24T09:15:40;98685.84;;;21.35;56.32
55990;BME280;41875;55.806;38.082;2023-07-24T09:18:12;98689.41;;;21.41;57.13
55990;BME280;41875;55.806;38.082;2023-07-24T09:20:42;98678.16;;;21.66;55.61
55990;BME280;41875;55.806;38.082;2023-07-24T09:23:12;98674.84;;;21.86;54.53
55990;BME280;41875;55.806;38.082;2023-07-24T09:25:47;98669.16;;;21.38;55.46
55990;BME280;41875;55.806;38.082;2023-07-24T09:28:17;98680.91;;;21.27;56.33
55990;BME280;41875;55.806;38.082;2023-07-24T09:30:52;98679.38;;;21.36;54.75
55990;BME280;41875;55.806;38.082;2023-07-24T09:33:21;98675.31;;;21.56;55.36
55990;BME280;41875;55.806;38.082;2023-07-24T09:35:57;98678.75;;;22.01;54.53
55990;BME280;41875;55.806;38.082;2023-07-24T09:38:26;98673.25;;;21.85;54.98
55990;BME280;41875;55.806;38.082;2023-07-24T09:40:56;98675.97;;;22.18;55.09
55990;BME280;41875;55.806;38.082;2023-07-24T09:43:27;98660.97;;;22.00;55.49
55990;BME280;41875;55.806;38.082;2023-07-24T09:46:07;98660.97;;;22.00;56.14
55990;BME280;41875;55.806;38.082;2023-07-24T09:48:38;98664.13;;;21.91;56.26
55990;BME280;41875;55.806;38.082;2023-07-24T09:51:29;98649.84;;;21.91;55.20
55990;BME280;41875;55.806;38.082;2023-07-24T09:54:06;98659.44;;;21.59;56.39
55990;BME280;41875;55.806;38.082;2023-07-24T09:56:44;98651.44;;;21.42;57.92
55990;BME280;41875;55.806;38.082;2023-07-24T09:59:43;98642.44;;;21.31;58.37
55990;BME280;41875;55.806;38.082;2023-07-24T10:02:17;98641.56;;;21.26;58.60
55990;BME280;41875;55.806;38.082;2023-07-24T10:04:46;98635.03;;;21.22;60.44
55990;BME280;41875;55.806;38.082;2023-07-24T10:07:16;98633.66;;;21.41;58.36
55990;BME280;41875;55.806;38.082;2023-07-24T10:10:09;98622.63;;;21.43;59.65
55990;BME280;41875;55.806;38.082;2023-07-24T10:12:46;98629.91;;;20.98;62.02
55990;BME280;41875;55.806;38.082;2023-07-24T10:15:43;98631.03;;;21.02;60.62
55990;BME280;41875;55.806;38.082;2023-07-24T10:18:17;98619.69;;;20.78;61.17
55990;BME280;41875;55.806;38.082;2023-07-24T10:21:00;98615.41;;;21.04;61.12
55990;BME280;41875;55.806;38.082;2023-07-24T10:23:28;98594.59;;;21.66;59.52
55990;BME280;41875;55.806;38.082;2023-07-24T10:26:02;98610.91;;;20.88;61.72
55990;BME280;41875;55.806;38.082;2023-07-24T10:28:42;98597.00;;;21.62;59.40
55990;BME280;41875;55.806;38.082;2023-07-24T10:31:22;98594.56;;;21.61;60.00
55990;BME280;41875;55.806;38.082;2023-07-24T10:33:55;98592.19;;;21.42;59.45
55990;BME280;41875;55.806;38.082;2023-07-24T10:37:02;98591.25;;;20.48;62.46
55990;BME280;41875;55.806;38.082;2023-07-24T10:39:37;98583.84;;;20.38;63.15
55990;BME280;41875;55.806;38.082;2023-07-24T10:42:26;98580.22;;;20.49;63.38
55990;BME280;41875;55.806;38.082;2023-07-24T10:45:12;98580.59;;;20.75;60.91
55990;BME280;41875;55.806;38.082;2023-07-24T10:47:45;98567.28;;;20.68;62.68
55990;BME280;41875;55.806;38.082;2023-07-24T10:50:38;98570.41;;;20.04;65.19
55990;BME280;41875;55.806;38.082;2023-07-24T10:53:16;98561.19;;;19.54;66.36
55990;BME280;41875;55.806;38.082;2023-07-24T10:55:50;98555.06;;;19.12;66.73
55990;BME280;41875;55.806;38.082;2023-07-24T10:58:27;98567.28;;;18.55;68.71
55990;BME280;41875;55.806;38.082;2023-07-24T11:01:06;98567.25;;;18.79;69.40
55990;BME280;41875;55.806;38.082;2023-07-24T11:03:49;98553.53;;;18.52;71.14
55990;BME280;41875;55.806;38.082;2023-07-24T11:09:52;98534.34;;;18.84;68.40
55990;BME280;41875;55.806;38.082;2023-07-24T11:12:25;98556.88;;;18.95;67.20
55990;BME280;41875;55.806;38.082;2023-07-24T11:15:01;98554.22;;;18.23;66.91
55990;BME280;41875;55.806;38.082;2023-07-24T11:17:35;98563.41;;;18.87;66.40
55990;BME280;41875;55.806;38.082;2023-07-24T11:20:06;98553.63;;;19.22;65.18
55990;BME280;41875;55.806;38.082;2023-07-24T11:22:37;98562.09;;;19.01;65.90
55990;BME280;41875;55.806;38.082;2023-07-24T11:25:08;98555.69;;;18.91;67.23
55990;BME280;41875;55.806;38.082;2023-07-24T11:27:39;98553.63;;;19.22;65.80
55990;BME280;41875;55.806;38.082;2023-07-24T11:30:10;98557.69;;;18.95;66.79
55990;BME280;41875;55.806;38.082;2023-07-24T11:32:41;98554.19;;;18.83;67.82
55990;BME280;41875;55.806;38.082;2023-07-24T11:35:11;98549.31;;;18.68;69.35
55990;BME280;41875;55.806;38.082;2023-07-24T11:37:43;98543.00;;;18.62;68.50
55990;BME280;41875;55.806;38.082;2023-07-24T11:40:13;98547.78;;;18.96;69.01
55990;BME280;41875;55.806;38.082;2023-07-24T11:42:43;98549.06;;;18.81;69.30
55990;BME280;41875;55.806;38.082;2023-07-24T11:45:15;98538.56;;;18.80;69.33
55990;BME280;41875;55.806;38.082;2023-07-24T11:47:49;98535.41;;;18.71;69.05
55990;BME280;41875;55.806;38.082;2023-07-24T11:50:25;98533.09;;;18.74;68.91
55990;BME280;41875;55.806;38.082;2023-07-24T11:53:20;98539.06;;;18.41;70.84
55990;BME280;41875;55.806;38.082;2023-07-24T11:56:25;98531.72;;;18.48;70.40
55990;BME280;41875;55.806;38.082;2023-07-24T11:59:13;98521.09;;;18.65;71.36
55990;BME280;41875;55.806;38.082;2023-07-24T12:01:48;98522.97;;;18.41;71.67
55990;BME280;41875;55.806;38.082;2023-07-24T12:04:21;98517.63;;;18.53;71.62
55990;BME280;41875;55.806;38.082;2023-07-24T12:07:01;98509.44;;;18.59;71.55
55990;BME280;41875;55.806;38.082;2023-07-24T12:09:39;98515.59;;;18.72;70.45
55990;BME280;41875;55.806;38.082;2023-07-24T12:12:17;98507.78;;;18.70;71.53
55990;BME280;41875;55.806;38.082;2023-07-24T12:14:45;98509.34;;;19.07;71.27
55990;BME280;41875;55.806;38.082;2023-07-24T12:17:17;98500.38;;;19.30;69.50
55990;BME280;41875;55.806;38.082;2023-07-24T12:19:50;98501.38;;;19.41;69.04
55990;BME280;41875;55.806;38.082;2023-07-24T12:22:19;98503.50;;;19.10;70.18
55990;BME280;41875;55.806;38.082;2023-07-24T12:24:47;98498.13;;;19.10;69.66
55990;BME280;41875;55.806;38.082;2023-07-24T12:27:16;98495.78;;;19.14;70.23
55990;BME280;41875;55.806;38.082;2023-07-24T12:29:44;98494.44;;;18.87;70.25
55990;BME280;41875;55.806;38.082;2023-07-24T12:32:13;98496.03;;;18.59;72.02
55990;BME280;41875;55.806;38.082;2023-07-24T12:34:53;98495.16;;;18.95;70.90
55990;BME280;41875;55.806;38.082;2023-07-24T12:37:56;98489.59;;;18.72;71.65
55990;BME280;41875;55.806;38.082;2023-07-24T12:40:31;98487.66;;;18.44;72.83
55990;BME280;41875;55.806;38.082;2023-07-24T12:43:24;98482.53;;;18.42;73.23
55990;BME280;41875;55.806;38.082;2023-07-24T12:45:53;98487.97;;;18.59;73.47
55990;BME280;41875;55.806;38.082;2023-07-24T12:48:21;98483.19;;;18.62;73.03
55990;BME280;41875;55.806;38.082;2023-07-24T12:50:52;98476.84;;;18.27;74.64
55990;BME280;41875;55.806;38.082;2023-07-24T12:53:22;98476.59;;;18.40;74.30
55990;BME280;41875;55.806;38.082;2023-07-24T12:55:58;98467.88;;;18.21;74.54
55990;BME280;41875;55.806;38.082;2023-07-24T12:58:40;98462.16;;;18.41;74.02
55990;BME280;41875;55.806;38.082;2023-07-24T13:01:41;98462.50;;;18.33;74.98
55990;BME280;41875;55.806;38.082;2023-07-24T13:04:45;98445.81;;;18.84;72.63
55990;BME280;41875;55.806;38.082;2023-07-24T13:07:17;98449.66;;;18.88;71.69
55990;BME280;41875;55.806;38.082;2023-07-24T13:09:49;98453.19;;;19.86;68.62
55990;BME280;41875;55.806;38.082;2023-07-24T13:12:17;98446.34;;;20.56;66.67
55990;BME280;41875;55.806;38.082;2023-07-24T13:14:46;98440.91;;;20.29;67.33
55990;BME280;41875;55.806;38.082;2023-07-24T13:17:15;98429.19;;;20.18;68.43
55990;BME280;41875;55.806;38.082;2023-07-24T13:19:45;98446.28;;;20.29;67.80